sensor_id;sensor_type;location;lat;lon;timestamp;P1;durP1;ratioP1;P2;durP2;ratioP2
24421;SDS011;12600;53.326;-6.298;2022-09-09T00:02:26;127.10;;;119.13;;
24421;SDS011;12600;53.326;-6.298;2022-09-09T00:04:58;113.78;;;106.80;;
24421;SDS011;12600;53.326;-6.298;2022-09-09T00:07:38;122.88;;;116.10;;
24421;SDS011;12600;53.326;-6.298;2022-09-09T00:10:16;117.05;;;110.10;;
24421;SDS011;12600;53.326;-6.298;2022-09-09T00:12:52;125.25;;;117.90;;
24421;SDS011;12600;53.326;-6.298;2022-09-09T00:15:38;148.95;;;140.18;;
24421;SDS011;12600;53.326;-6.298;2022-09-09T00:18:20;129.98;;;122.43;;
24421;SDS011;12600;53.326;-6.298;2022-09-09T00:20:58;107.75;;;100.68;;
24421;SDS011;12600;53.326;-6.298;2022-09-09T00:23:35;122.63;;;115.05;;
24421;SDS011;12600;53.326;-6.298;2022-09-09T00:26:09;128.55;;;121.40;;
24421;SDS011;12600;53.326;-6.298;2022-09-09T00:28:46;133.05;;;125.18;;
24421;SDS011;12600;53.326;-6.298;2022-09-09T00:31:25;122.20;;;114.75;;
24421;SDS011;12600;53.326;-6.298;2022-09-09T00:33:58;131.40;;;123.63;;
24421;SDS011;12600;53.326;-6.298;2022-09-09T00:36:40;130.32;;;122.65;;
24421;SDS011;12600;53.326;-6.298;2022-09-09T00:39:23;127.32;;;120.07;;
24421;SDS011;12600;53.326;-6.298;2022-09-09T00:42:03;111.30;;;104.65;;
24421;SDS011;12600;53.326;-6.298;2022-09-09T00:44:48;115.03;;;108.10;;
24421;SDS011;12600;53.326;-6.298;2022-09-09T00:53:05;105.93;;;99.55;;
24421;SDS011;12600;53.326;-6.298;2022-09-09T00:55:53;103.40;;;97.07;;
24421;SDS011;12600;53.326;-6.298;2022-09-09T00:58:32;109.35;;;103.20;;
24421;SDS011;12600;53.326;-6.298;2022-09-09T01:01:02;116.90;;;110.05;;
24421;SDS011;12600;53.326;-6.298;2022-09-09T01:03:37;127.50;;;120.22;;
24421;SDS011;12600;53.326;-6.298;2022-09-09T01:06:14;131.27;;;123.40;;
24421;SDS011;12600;53.326;-6.298;2022-09-09T01:11:49;111.80;;;105.10;;
24421;SDS011;12600;53.326;-6.298;2022-09-09T01:14:32;125.57;;;118.05;;
24421;SDS011;12600;53.326;-6.298;2022-09-09T01:17:13;112.30;;;105.88;;
24421;SDS011;12600;53.326;-6.298;2022-09-09T01:20:03;116.22;;;109.50;;
24421;SDS011;12600;53.326;-6.298;2022-09-09T01:22:50;110.70;;;104.18;;
24421;SDS011;12600;53.326;-6.298;2022-09-09T01:28:57;115.55;;;108.88;;
24421;SDS011;12600;53.326;-6.298;2022-09-09T01:31:36;113.07;;;106.30;;
24421;SDS011;12600;53.326;-6.298;2022-09-09T01:34:09;135.70;;;128.18;;
24421;SDS011;12600;53.326;-6.298;2022-09-09T01:36:42;132.52;;;124.93;;
24421;SDS011;12600;53.326;-6.298;2022-09-09T01:39:17;121.47;;;114.53;;
24421;SDS011;12600;53.326;-6.298;2022-09-09T01:41:58;120.45;;;113.40;;
24421;SDS011;12600;53.326;-6.298;2022-09-09T01:44:27;122.03;;;114.95;;
24421;SDS011;12600;53.326;-6.298;2022-09-09T01:46:58;129.48;;;121.95;;
24421;SDS011;12600;53.326;-6.298;2022-09-09T01:49:27;126.03;;;119.05;;
24421;SDS011;12600;53.326;-6.298;2022-09-09T01:51:57;137.10;;;129.38;;
24421;SDS011;12600;53.326;-6.298;2022-09-09T01:54:32;124.10;;;117.25;;
24421;SDS011;12600;53.326;-6.298;2022-09-09T01:57:11;121.20;;;113.95;;
24421;SDS011;12600;53.326;-6.298;2022-09-09T01:59:49;135.25;;;127.68;;
24421;SDS011;12600;53.326;-6.298;2022-09-09T02:02:43;126.75;;;119.35;;
24421;SDS011;12600;53.326;-6.298;2022-09-09T02:05:29;207.90;;;195.27;;
24421;SDS011;12600;53.326;-6.298;2022-09-09T02:08:11;114.60;;;108.35;;
24421;SDS011;12600;53.326;-6.298;2022-09-09T02:10:55;140.05;;;131.98;;
24421;SDS011;12600;53.326;-6.298;2022-09-09T02:13:40;115.03;;;108.35;;
24421;SDS011;12600;53.326;-6.298;2022-09-09T02:16:15;149.13;;;140.02;;
24421;SDS011;12600;53.326;-6.298;2022-09-09T02:18:53;131.27;;;124.20;;
24421;SDS011;12600;53.326;-6.298;2022-09-09T02:21:39;111.95;;;105.78;;
24421;SDS011;12600;53.326;-6.298;2022-09-09T02:24:12;124.88;;;117.15;;
24421;SDS011;12600;53.326;-6.298;2022-09-09T02:26:51;145.00;;;136.25;;
24421;SDS011;12600;53.326;-6.298;2022-09-09T02:29:25;130.43;;;122.88;;
24421;SDS011;12600;53.326;-6.298;2022-09-09T02:32:01;151.98;;;142.88;;
24421;SDS011;12600;53.326;-6.298;2022-09-09T02:34:39;97.88;;;92.07;;
24421;SDS011;12600;53.326;-6.298;2022-09-09T02:37:16;123.28;;;116.70;;
24421;SDS011;12600;53.326;-6.298;2022-09-09T02:39:52;124.43;;;117.63;;
24421;SDS011;12600;53.326;-6.298;2022-09-09T02:42:22;113.93;;;107.38;;
24421;SDS011;12600;53.326;-6.298;2022-09-09T02:44:55;133.02;;;125.05;;
24421;SDS011;12600;53.326;-6.298;2022-09-09T02:47:25;118.60;;;112.03;;
24421;SDS011;12600;53.326;-6.298;2022-09-09T02:50:11;112.53;;;105.95;;
24421;SDS011;12600;53.326;-6.298;2022-09-09T02:52:49;129.60;;;122.20;;
24421;SDS011;12600;53.326;-6.298;2022-09-09T02:55:40;120.95;;;114.05;;
24421;SDS011;12600;53.326;-6.298;2022-09-09T02:58:17;109.93;;;103.38;;
24421;SDS011;12600;53.326;-6.298;2022-09-09T03:01:02;124.60;;;117.60;;
24421;SDS011;12600;53.326;-6.298;2022-09-09T03:03:32;124.68;;;117.50;;
24421;SDS011;12600;53.326;-6.298;2022-09-09T03:06:06;107.78;;;101.75;;
24421;SDS011;12600;53.326;-6.298;2022-09-09T03:08:37;132.13;;;124.75;;
24421;SDS011;12600;53.326;-6.298;2022-09-09T03:11:11;105.93;;;99.95;;
24421;SDS011;12600;53.326;-6.298;2022-09-09T03:13:42;141.95;;;133.85;;
24421;SDS011;12600;53.326;-6.298;2022-09-09T03:16:13;111.30;;;105.10;;
24421;SDS011;12600;53.326;-6.298;2022-09-09T03:18:46;114.75;;;108.13;;
24421;SDS011;12600;53.326;-6.298;2022-09-09T03:21:16;124.05;;;117.25;;
24421;SDS011;12600;53.326;-6.298;2022-09-09T03:23:45;98.95;;;93.32;;
24421;SDS011;12600;53.326;-6.298;2022-09-09T03:26:15;111.13;;;105.05;;
24421;SDS011;12600;53.326;-6.298;2022-09-09T03:28:46;103.80;;;97.90;;
24421;SDS011;12600;53.326;-6.298;2022-09-09T03:31:19;113.35;;;106.80;;
24421;SDS011;12600;53.326;-6.298;2022-09-09T03:33:50;121.53;;;114.50;;
24421;SDS011;12600;53.326;-6.298;2022-09-09T03:36:20;105.13;;;99.07;;
24421;SDS011;12600;53.326;-6.298;2022-09-09T03:38:50;105.68;;;99.43;;
24421;SDS011;12600;53.326;-6.298;2022-09-09T03:41:19;96.35;;;90.82;;
24421;SDS011;12600;53.326;-6.298;2022-09-09T03:43:51;101.75;;;96.20;;
24421;SDS011;12600;53.326;-6.298;2022-09-09T03:48:54;98.00;;;92.32;;
24421;SDS011;12600;53.326;-6.298;2022-09-09T03:51:24;105.32;;;99.45;;
24421;SDS011;12600;53.326;-6.298;2022-09-09T03:53:54;109.18;;;102.72;;
24421;SDS011;12600;53.326;-6.298;2022-09-09T03:56:25;103.30;;;97.50;;
24421;SDS011;12600;53.326;-6.298;2022-09-09T03:58:55;99.53;;;93.00;;
24421;SDS011;12600;53.326;-6.298;2022-09-09T04:01:26;105.55;;;99.38;;
24421;SDS011;12600;53.326;-6.298;2022-09-09T04:03:56;100.85;;;95.18;;
24421;SDS011;12600;53.326;-6.298;2022-09-09T04:06:26;121.55;;;114.47;;
24421;SDS011;12600;53.326;-6.298;2022-09-09T04:08:56;98.47;;;92.88;;
24421;SDS011;12600;53.326;-6.298;2022-09-09T04:11:26;113.25;;;106.57;;
24421;SDS011;12600;53.326;-6.298;2022-09-09T04:13:57;110.88;;;104.53;;
24421;SDS011;12600;53.326;-6.298;2022-09-09T04:16:30;104.28;;;98.28;;
24421;SDS011;12600;53.326;-6.298;2022-09-09T04:18:59;121.57;;;114.97;;
24421;SDS011;12600;53.326;-6.298;2022-09-09T04:21:31;119.70;;;112.95;;
24421;SDS011;12600;53.326;-6.298;2022-09-09T04:24:01;126.93;;;119.63;;
24421;SDS011;12600;53.326;-6.298;2022-09-09T04:26:31;107.75;;;101.32;;
24421;SDS011;12600;53.326;-6.298;2022-09-09T04:29:00;118.63;;;112.18;;
24421;SDS011;12600;53.326;-6.298;2022-09-09T04:31:31;108.80;;;102.45;;
24421;SDS011;12600;53.326;-6.298;2022-09-09T04:34:01;144.65;;;136.52;;
24421;SDS011;12600;53.326;-6.298;2022-09-09T04:36:33;114.93;;;108.40;;
24421;SDS011;12600;53.326;-6.298;2022-09-09T04:39:04;125.22;;;118.38;;
24421;SDS011;12600;53.326;-6.298;2022-09-09T04:41:34;99.78;;;94.22;;
24421;SDS011;12600;53.326;-6.298;2022-09-09T04:44:03;115.97;;;109.28;;
24421;SDS011;12600;53.326;-6.298;2022-09-09T04:46:34;122.13;;;115.40;;
24421;SDS011;12600;53.326;-6.298;2022-09-09T04:49:03;130.48;;;122.35;;
24421;SDS011;12600;53.326;-6.298;2022-09-09T04:51:35;156.73;;;147.60;;
24421;SDS011;12600;53.326;-6.298;2022-09-09T04:54:04;103.40;;;97.60;;
24421;SDS011;12600;53.326;-6.298;2022-09-09T04:56:36;118.93;;;112.70;;
24421;SDS011;12600;53.326;-6.298;2022-09-09T04:59:05;143.00;;;134.90;;
24421;SDS011;12600;53.326;-6.298;2022-09-09T05:01:42;215.23;;;201.10;;
24421;SDS011;12600;53.326;-6.298;2022-09-09T05:04:13;114.35;;;108.20;;
24421;SDS011;12600;53.326;-6.298;2022-09-09T05:06:42;108.43;;;102.63;;
24421;SDS011;12600;53.326;-6.298;2022-09-09T05:09:13;105.80;;;99.90;;
24421;SDS011;12600;53.326;-6.298;2022-09-09T05:11:44;116.30;;;109.75;;
24421;SDS011;12600;53.326;-6.298;2022-09-09T05:14:20;134.93;;;127.38;;
24421;SDS011;12600;53.326;-6.298;2022-09-09T05:16:51;113.13;;;107.32;;
24421;SDS011;12600;53.326;-6.298;2022-09-09T05:19:22;107.32;;;101.53;;
24421;SDS011;12600;53.326;-6.298;2022-09-09T05:21:52;104.15;;;97.70;;
24421;SDS011;12600;53.326;-6.298;2022-09-09T05:24:28;117.70;;;111.50;;
24421;SDS011;12600;53.326;-6.298;2022-09-09T05:27:01;121.43;;;114.93;;
24421;SDS011;12600;53.326;-6.298;2022-09-09T05:29:32;110.60;;;104.75;;
24421;SDS011;12600;53.326;-6.298;2022-09-09T05:32:05;117.22;;;111.00;;
24421;SDS011;12600;53.326;-6.298;2022-09-09T05:34:42;146.20;;;138.10;;
24421;SDS011;12600;53.326;-6.298;2022-09-09T05:37:11;119.72;;;113.45;;
24421;SDS011;12600;53.326;-6.298;2022-09-09T05:39:41;107.20;;;101.38;;
24421;SDS011;12600;53.326;-6.298;2022-09-09T05:42:11;129.82;;;123.03;;
24421;SDS011;12600;53.326;-6.298;2022-09-09T05:44:41;114.75;;;108.35;;
24421;SDS011;12600;53.326;-6.298;2022-09-09T05:47:13;96.70;;;91.10;;
24421;SDS011;12600;53.326;-6.298;2022-09-09T05:49:43;125.30;;;118.38;;
24421;SDS011;12600;53.326;-6.298;2022-09-09T05:52:12;97.00;;;91.75;;
24421;SDS011;12600;53.326;-6.298;2022-09-09T05:54:41;122.03;;;115.18;;
24421;SDS011;12600;53.326;-6.298;2022-09-09T05:57:11;127.85;;;120.82;;
24421;SDS011;12600;53.326;-6.298;2022-09-09T05:59:40;145.10;;;136.80;;
24421;SDS011;12600;53.326;-6.298;2022-09-09T06:02:09;141.48;;;133.30;;
24421;SDS011;12600;53.326;-6.298;2022-09-09T06:04:41;129.40;;;122.38;;
24421;SDS011;12600;53.326;-6.298;2022-09-09T06:07:11;112.57;;;106.32;;
24421;SDS011;12600;53.326;-6.298;2022-09-09T06:09:41;133.68;;;125.78;;
24421;SDS011;12600;53.326;-6.298;2022-09-09T06:12:11;95.22;;;90.22;;
24421;SDS011;12600;53.326;-6.298;2022-09-09T06:14:41;153.90;;;144.65;;
24421;SDS011;12600;53.326;-6.298;2022-09-09T06:17:16;117.80;;;111.22;;
24421;SDS011;12600;53.326;-6.298;2022-09-09T06:19:47;116.22;;;109.53;;
24421;SDS011;12600;53.326;-6.298;2022-09-09T06:22:21;139.50;;;131.68;;
24421;SDS011;12600;53.326;-6.298;2022-09-09T06:24:51;111.47;;;105.72;;
24421;SDS011;12600;53.326;-6.298;2022-09-09T06:27:20;133.32;;;126.30;;
24421;SDS011;12600;53.326;-6.298;2022-09-09T06:29:50;113.10;;;107.22;;
24421;SDS011;12600;53.326;-6.298;2022-09-09T06:32:19;103.30;;;97.90;;
24421;SDS011;12600;53.326;-6.298;2022-09-09T06:34:51;112.22;;;106.15;;
24421;SDS011;12600;53.326;-6.298;2022-09-09T06:37:20;141.10;;;133.98;;
24421;SDS011;12600;53.326;-6.298;2022-09-09T06:39:51;130.38;;;123.18;;
24421;SDS011;12600;53.326;-6.298;2022-09-09T06:42:22;128.73;;;122.18;;
24421;SDS011;12600;53.326;-6.298;2022-09-09T06:45:03;107.18;;;101.63;;
24421;SDS011;12600;53.326;-6.298;2022-09-09T06:47:44;114.72;;;108.40;;
24421;SDS011;12600;53.326;-6.298;2022-09-09T06:50:15;139.57;;;131.80;;
24421;SDS011;12600;53.326;-6.298;2022-09-09T06:52:45;132.73;;;125.72;;
24421;SDS011;12600;53.326;-6.298;2022-09-09T06:55:15;107.57;;;101.85;;
24421;SDS011;12600;53.326;-6.298;2022-09-09T06:57:47;98.60;;;93.22;;
24421;SDS011;12600;53.326;-6.298;2022-09-09T07:00:21;106.13;;;100.53;;
24421;SDS011;12600;53.326;-6.298;2022-09-09T07:02:53;132.55;;;125.32;;
24421;SDS011;12600;53.326;-6.298;2022-09-09T07:05:24;105.30;;;99.72;;
24421;SDS011;12600;53.326;-6.298;2022-09-09T07:07:53;118.30;;;112.00;;
24421;SDS011;12600;53.326;-6.298;2022-09-09T07:10:23;119.95;;;113.65;;
24421;SDS011;12600;53.326;-6.298;2022-09-09T07:12:54;116.55;;;110.43;;
24421;SDS011;12600;53.326;-6.298;2022-09-09T07:15:24;116.82;;;110.80;;
24421;SDS011;12600;53.326;-6.298;2022-09-09T07:17:54;117.55;;;111.32;;
24421;SDS011;12600;53.326;-6.298;2022-09-09T07:20:29;113.95;;;107.85;;
24421;SDS011;12600;53.326;-6.298;2022-09-09T07:22:58;107.90;;;102.22;;
24421;SDS011;12600;53.326;-6.298;2022-09-09T07:28:00;121.25;;;115.20;;
24421;SDS011;12600;53.326;-6.298;2022-09-09T07:30:30;107.40;;;101.90;;
24421;SDS011;12600;53.326;-6.298;2022-09-09T07:33:06;106.22;;;100.40;;
24421;SDS011;12600;53.326;-6.298;2022-09-09T07:35:38;119.28;;;113.30;;
24421;SDS011;12600;53.326;-6.298;2022-09-09T07:38:08;121.90;;;115.68;;
24421;SDS011;12600;53.326;-6.298;2022-09-09T07:40:38;112.57;;;106.72;;
24421;SDS011;12600;53.326;-6.298;2022-09-09T07:43:07;113.72;;;107.55;;
24421;SDS011;12600;53.326;-6.298;2022-09-09T07:45:42;133.75;;;126.90;;
24421;SDS011;12600;53.326;-6.298;2022-09-09T07:48:12;118.10;;;112.32;;
24421;SDS011;12600;53.326;-6.298;2022-09-09T07:50:45;109.25;;;103.70;;
24421;SDS011;12600;53.326;-6.298;2022-09-09T07:53:15;116.38;;;110.43;;
24421;SDS011;12600;53.326;-6.298;2022-09-09T07:55:44;116.97;;;110.88;;
24421;SDS011;12600;53.326;-6.298;2022-09-09T07:58:14;120.80;;;114.40;;
24421;SDS011;12600;53.326;-6.298;2022-09-09T08:00:43;128.52;;;122.20;;
24421;SDS011;12600;53.326;-6.298;2022-09-09T08:03:12;117.45;;;111.72;;
24421;SDS011;12600;53.326;-6.298;2022-09-09T08:05:42;110.63;;;105.10;;
24421;SDS011;12600;53.326;-6.298;2022-09-09T08:08:12;126.78;;;120.32;;
24421;SDS011;12600;53.326;-6.298;2022-09-09T08:10:44;113.28;;;107.50;;
24421;SDS011;12600;53.326;-6.298;2022-09-09T08:13:13;124.13;;;117.82;;
24421;SDS011;12600;53.326;-6.298;2022-09-09T08:15:47;125.53;;;119.43;;
24421;SDS011;12600;53.326;-6.298;2022-09-09T08:18:18;123.93;;;117.68;;
24421;SDS011;12600;53.326;-6.298;2022-09-09T08:20:49;125.05;;;118.55;;
24421;SDS011;12600;53.326;-6.298;2022-09-09T08:23:20;124.10;;;117.78;;
24421;SDS011;12600;53.326;-6.298;2022-09-09T08:25:49;121.22;;;115.00;;
24421;SDS011;12600;53.326;-6.298;2022-09-09T08:28:18;156.25;;;148.35;;
24421;SDS011;12600;53.326;-6.298;2022-09-09T08:30:48;130.48;;;123.78;;
24421;SDS011;12600;53.326;-6.298;2022-09-09T08:33:20;130.32;;;123.72;;
24421;SDS011;12600;53.326;-6.298;2022-09-09T08:35:50;120.82;;;114.85;;
24421;SDS011;12600;53.326;-6.298;2022-09-09T08:38:22;115.65;;;109.88;;
24421;SDS011;12600;53.326;-6.298;2022-09-09T08:40:51;125.82;;;119.43;;
24421;SDS011;12600;53.326;-6.298;2022-09-09T08:43:33;132.98;;;125.93;;
24421;SDS011;12600;53.326;-6.298;2022-09-09T08:46:04;113.97;;;107.78;;
24421;SDS011;12600;53.326;-6.298;2022-09-09T08:48:43;136.13;;;128.73;;
24421;SDS011;12600;53.326;-6.298;2022-09-09T08:51:25;134.82;;;127.75;;
24421;SDS011;12600;53.326;-6.298;2022-09-09T08:53:59;118.72;;;112.63;;
24421;SDS011;12600;53.326;-6.298;2022-09-09T08:56:32;120.63;;;114.60;;
24421;SDS011;12600;53.326;-6.298;2022-09-09T08:59:03;126.85;;;120.13;;
24421;SDS011;12600;53.326;-6.298;2022-09-09T09:01:41;139.77;;;132.38;;
24421;SDS011;12600;53.326;-6.298;2022-09-09T09:04:47;133.77;;;126.28;;
24421;SDS011;12600;53.326;-6.298;2022-09-09T09:07:36;144.30;;;136.13;;
24421;SDS011;12600;53.326;-6.298;2022-09-09T09:10:35;119.03;;;112.30;;
24421;SDS011;12600;53.326;-6.298;2022-09-09T09:13:20;123.50;;;116.75;;
24421;SDS011;12600;53.326;-6.298;2022-09-09T09:15:58;119.72;;;113.35;;
24421;SDS011;12600;53.326;-6.298;2022-09-09T09:18:35;124.15;;;117.88;;
24421;SDS011;12600;53.326;-6.298;2022-09-09T09:21:06;126.78;;;120.28;;
24421;SDS011;12600;53.326;-6.298;2022-09-09T09:23:43;132.88;;;126.18;;
24421;SDS011;12600;53.326;-6.298;2022-09-09T09:26:22;123.55;;;117.20;;
24421;SDS011;12600;53.326;-6.298;2022-09-09T09:28:58;168.23;;;159.02;;
24421;SDS011;12600;53.326;-6.298;2022-09-09T09:31:30;141.07;;;133.63;;
24421;SDS011;12600;53.326;-6.298;2022-09-09T09:33:59;116.35;;;110.28;;
24421;SDS011;12600;53.326;-6.298;2022-09-09T09:36:33;188.18;;;178.40;;
24421;SDS011;12600;53.326;-6.298;2022-09-09T09:39:10;150.02;;;142.10;;
24421;SDS011;12600;53.326;-6.298;2022-09-09T09:42:14;125.00;;;118.38;;
24421;SDS011;12600;53.326;-6.298;2022-09-09T09:44:50;137.15;;;129.82;;
24421;SDS011;12600;53.326;-6.298;2022-09-09T09:47:21;135.80;;;128.77;;
24421;SDS011;12600;53.326;-6.298;2022-09-09T09:49:58;138.43;;;130.80;;
24421;SDS011;12600;53.326;-6.298;2022-09-09T09:52:35;148.65;;;140.93;;
24421;SDS011;12600;53.326;-6.298;2022-09-09T09:55:11;153.20;;;144.45;;
24421;SDS011;12600;53.326;-6.298;2022-09-09T09:57:46;140.50;;;133.23;;
24421;SDS011;12600;53.326;-6.298;2022-09-09T10:00:16;125.90;;;118.97;;
24421;SDS011;12600;53.326;-6.298;2022-09-09T10:02:57;172.80;;;162.55;;
24421;SDS011;12600;53.326;-6.298;2022-09-09T10:05:35;189.25;;;179.32;;
24421;SDS011;12600;53.326;-6.298;2022-09-09T10:08:10;154.05;;;145.93;;
24421;SDS011;12600;53.326;-6.298;2022-09-09T10:10:49;187.63;;;177.65;;
24421;SDS011;12600;53.326;-6.298;2022-09-09T10:13:45;171.48;;;162.73;;
24421;SDS011;12600;53.326;-6.298;2022-09-09T10:16:25;226.23;;;214.45;;
24421;SDS011;12600;53.326;-6.298;2022-09-09T10:19:13;149.93;;;141.75;;
24421;SDS011;12600;53.326;-6.298;2022-09-09T10:24:57;205.60;;;194.95;;
24421;SDS011;12600;53.326;-6.298;2022-09-09T10:34:06;111.10;;;105.55;;
24421;SDS011;12600;53.326;-6.298;2022-09-09T10:36:57;197.90;;;187.63;;
24421;SDS011;12600;53.326;-6.298;2022-09-09T10:39:32;207.35;;;196.63;;
24421;SDS011;12600;53.326;-6.298;2022-09-09T10:42:09;208.75;;;197.95;;
24421;SDS011;12600;53.326;-6.298;2022-09-09T10:44:47;315.85;;;299.77;;
24421;SDS011;12600;53.326;-6.298;2022-09-09T10:47:39;336.02;;;318.98;;
24421;SDS011;12600;53.326;-6.298;2022-09-09T10:53:35;189.35;;;178.82;;
24421;SDS011;12600;53.326;-6.298;2022-09-09T10:56:14;253.68;;;240.25;;
24421;SDS011;12600;53.326;-6.298;2022-09-09T10:58:47;280.88;;;265.98;;
24421;SDS011;12600;53.326;-6.298;2022-09-09T11:01:22;238.02;;;225.13;;
24421;SDS011;12600;53.326;-6.298;2022-09-09T11:03:57;284.30;;;269.50;;
24421;SDS011;12600;53.326;-6.298;2022-09-09T11:06:32;318.02;;;301.77;;
24421;SDS011;12600;53.326;-6.298;2022-09-09T11:09:08;294.00;;;279.00;;
24421;SDS011;12600;53.326;-6.298;2022-09-09T11:11:45;199.70;;;188.75;;
24421;SDS011;12600;53.326;-6.298;2022-09-09T11:14:22;245.35;;;231.93;;
24421;SDS011;12600;53.326;-6.298;2022-09-09T11:17:06;162.90;;;153.98;;
24421;SDS011;12600;53.326;-6.298;2022-09-09T11:19:41;248.43;;;235.60;;
24421;SDS011;12600;53.326;-6.298;2022-09-09T11:22:16;172.38;;;162.90;;
24421;SDS011;12600;53.326;-6.298;2022-09-09T11:24:57;226.85;;;214.80;;
24421;SDS011;12600;53.326;-6.298;2022-09-09T11:27:32;293.33;;;278.10;;
24421;SDS011;12600;53.326;-6.298;2022-09-09T11:30:15;268.48;;;254.70;;
24421;SDS011;12600;53.326;-6.298;2022-09-09T11:33:26;194.77;;;184.30;;
24421;SDS011;12600;53.326;-6.298;2022-09-09T11:36:36;203.07;;;192.30;;
24421;SDS011;12600;53.326;-6.298;2022-09-09T11:39:46;202.75;;;191.10;;
24421;SDS011;12600;53.326;-6.298;2022-09-09T11:42:42;187.77;;;177.25;;
24421;SDS011;12600;53.326;-6.298;2022-09-09T11:45:19;234.30;;;221.57;;
24421;SDS011;12600;53.326;-6.298;2022-09-09T11:47:54;242.48;;;229.57;;
24421;SDS011;12600;53.326;-6.298;2022-09-09T11:50:34;241.63;;;227.40;;
24421;SDS011;12600;53.326;-6.298;2022-09-09T11:53:21;287.08;;;272.05;;
24421;SDS011;12600;53.326;-6.298;2022-09-09T11:56:05;247.43;;;234.38;;
24421;SDS011;12600;53.326;-6.298;2022-09-09T11:58:43;200.85;;;189.07;;
24421;SDS011;12600;53.326;-6.298;2022-09-09T12:01:28;264.05;;;249.25;;
24421;SDS011;12600;53.326;-6.298;2022-09-09T12:07:03;243.82;;;230.90;;
24421;SDS011;12600;53.326;-6.298;2022-09-09T12:09:51;383.48;;;363.55;;
24421;SDS011;12600;53.326;-6.298;2022-09-09T12:12:27;296.65;;;279.65;;
24421;SDS011;12600;53.326;-6.298;2022-09-09T12:15:01;313.90;;;297.13;;
24421;SDS011;12600;53.326;-6.298;2022-09-09T12:17:52;344.00;;;325.88;;
24421;SDS011;12600;53.326;-6.298;2022-09-09T12:20:31;349.38;;;330.48;;
24421;SDS011;12600;53.326;-6.298;2022-09-09T12:23:13;366.33;;;347.23;;
24421;SDS011;12600;53.326;-6.298;2022-09-09T12:26:04;394.05;;;374.27;;
24421;SDS011;12600;53.326;-6.298;2022-09-09T12:28:50;320.55;;;305.00;;
24421;SDS011;12600;53.326;-6.298;2022-09-09T12:31:32;424.30;;;403.00;;
24421;SDS011;12600;53.326;-6.298;2022-09-09T12:34:14;367.95;;;349.42;;
24421;SDS011;12600;53.326;-6.298;2022-09-09T12:36:49;320.35;;;304.48;;
24421;SDS011;12600;53.326;-6.298;2022-09-09T12:39:28;381.25;;;361.52;;
24421;SDS011;12600;53.326;-6.298;2022-09-09T12:42:04;340.70;;;323.92;;
24421;SDS011;12600;53.326;-6.298;2022-09-09T12:44:51;337.90;;;321.08;;
24421;SDS011;12600;53.326;-6.298;2022-09-09T12:47:23;351.10;;;333.90;;
24421;SDS011;12600;53.326;-6.298;2022-09-09T12:50:00;259.05;;;246.55;;
24421;SDS011;12600;53.326;-6.298;2022-09-09T12:52:30;263.50;;;250.45;;
24421;SDS011;12600;53.326;-6.298;2022-09-09T12:55:06;267.88;;;254.70;;
24421;SDS011;12600;53.326;-6.298;2022-09-09T12:57:36;297.42;;;282.75;;
24421;SDS011;12600;53.326;-6.298;2022-09-09T13:00:10;310.67;;;295.35;;
24421;SDS011;12600;53.326;-6.298;2022-09-09T13:02:48;301.13;;;286.05;;
24421;SDS011;12600;53.326;-6.298;2022-09-09T13:05:21;349.33;;;331.00;;
24421;SDS011;12600;53.326;-6.298;2022-09-09T13:08:00;313.05;;;297.75;;
24421;SDS011;12600;53.326;-6.298;2022-09-09T13:10:33;346.70;;;329.27;;
24421;SDS011;12600;53.326;-6.298;2022-09-09T13:13:27;296.15;;;281.17;;
24421;SDS011;12600;53.326;-6.298;2022-09-09T13:16:17;342.65;;;325.38;;
24421;SDS011;12600;53.326;-6.298;2022-09-09T13:18:50;368.83;;;350.35;;
24421;SDS011;12600;53.326;-6.298;2022-09-09T13:21:20;313.42;;;298.15;;
24421;SDS011;12600;53.326;-6.298;2022-09-09T13:24:01;310.88;;;294.48;;
24421;SDS011;12600;53.326;-6.298;2022-09-09T13:26:35;279.75;;;266.27;;
24421;SDS011;12600;53.326;-6.298;2022-09-09T13:29:14;285.08;;;271.42;;
24421;SDS011;12600;53.326;-6.298;2022-09-09T13:31:46;303.45;;;288.25;;
24421;SDS011;12600;53.326;-6.298;2022-09-09T13:34:27;281.48;;;266.95;;
24421;SDS011;12600;53.326;-6.298;2022-09-09T13:36:59;330.65;;;313.67;;
24421;SDS011;12600;53.326;-6.298;2022-09-09T13:39:32;379.10;;;360.25;;
24421;SDS011;12600;53.326;-6.298;2022-09-09T13:42:05;324.58;;;308.75;;
24421;SDS011;12600;53.326;-6.298;2022-09-09T13:44:52;312.05;;;295.95;;
24421;SDS011;12600;53.326;-6.298;2022-09-09T13:47:26;259.88;;;246.13;;
24421;SDS011;12600;53.326;-6.298;2022-09-09T13:50:09;286.95;;;272.52;;
24421;SDS011;12600;53.326;-6.298;2022-09-09T13:52:48;278.65;;;263.80;;
24421;SDS011;12600;53.326;-6.298;2022-09-09T13:55:18;206.10;;;195.88;;
24421;SDS011;12600;53.326;-6.298;2022-09-09T13:57:52;276.05;;;262.20;;
24421;SDS011;12600;53.326;-6.298;2022-09-09T14:00:23;278.08;;;263.55;;
24421;SDS011;12600;53.326;-6.298;2022-09-09T14:02:53;310.40;;;294.48;;
24421;SDS011;12600;53.326;-6.298;2022-09-09T14:05:23;243.60;;;231.32;;
24421;SDS011;12600;53.326;-6.298;2022-09-09T14:07:52;224.88;;;213.27;;
24421;SDS011;12600;53.326;-6.298;2022-09-09T14:10:21;300.92;;;285.75;;
24421;SDS011;12600;53.326;-6.298;2022-09-09T14:12:52;252.05;;;238.85;;
24421;SDS011;12600;53.326;-6.298;2022-09-09T14:15:21;312.42;;;296.77;;
24421;SDS011;12600;53.326;-6.298;2022-09-09T14:17:51;269.85;;;255.50;;
24421;SDS011;12600;53.326;-6.298;2022-09-09T14:20:20;225.90;;;213.90;;
24421;SDS011;12600;53.326;-6.298;2022-09-09T14:22:49;286.13;;;270.98;;
24421;SDS011;12600;53.326;-6.298;2022-09-09T14:25:20;224.82;;;213.15;;
24421;SDS011;12600;53.326;-6.298;2022-09-09T14:27:49;299.30;;;282.38;;
24421;SDS011;12600;53.326;-6.298;2022-09-09T14:30:20;268.75;;;254.00;;
24421;SDS011;12600;53.326;-6.298;2022-09-09T14:32:49;232.18;;;219.77;;
24421;SDS011;12600;53.326;-6.298;2022-09-09T14:35:18;221.63;;;208.95;;
24421;SDS011;12600;53.326;-6.298;2022-09-09T14:37:49;256.33;;;242.70;;
24421;SDS011;12600;53.326;-6.298;2022-09-09T14:40:18;209.30;;;197.48;;
24421;SDS011;12600;53.326;-6.298;2022-09-09T14:42:48;257.73;;;243.90;;
24421;SDS011;12600;53.326;-6.298;2022-09-09T14:45:19;250.30;;;237.15;;
24421;SDS011;12600;53.326;-6.298;2022-09-09T14:47:52;264.75;;;250.40;;
24421;SDS011;12600;53.326;-6.298;2022-09-09T14:50:21;288.33;;;272.25;;
24421;SDS011;12600;53.326;-6.298;2022-09-09T14:52:52;254.50;;;240.57;;
24421;SDS011;12600;53.326;-6.298;2022-09-09T14:55:21;249.63;;;237.00;;
24421;SDS011;12600;53.326;-6.298;2022-09-09T14:57:50;251.90;;;239.38;;
24421;SDS011;12600;53.326;-6.298;2022-09-09T15:00:21;280.92;;;266.88;;
24421;SDS011;12600;53.326;-6.298;2022-09-09T15:02:51;287.33;;;272.30;;
24421;SDS011;12600;53.326;-6.298;2022-09-09T15:05:21;275.98;;;262.63;;